createdAt,value
2022-10-05T00:00:48.310Z,18.37
2022-10-05T00:05:45.882Z,18.63
2022-10-05T00:08:34.370Z,17.73
2022-10-05T00:11:02.529Z,18.05
2022-10-05T00:13:31.522Z,18.05
2022-10-05T00:16:20.769Z,17.70
2022-10-05T00:18:50.752Z,17.05
2022-10-05T00:21:25.470Z,17.45
2022-10-05T00:24:20.280Z,17.58
2022-10-05T00:26:52.726Z,18.13
2022-10-05T00:29:25.203Z,16.92
2022-10-05T00:31:53.101Z,17.35
2022-10-05T00:34:20.830Z,18.38
2022-10-05T00:36:49.044Z,17.73
2022-10-05T00:39:18.421Z,16.88
2022-10-05T00:41:55.101Z,16.30
2022-10-05T00:44:34.171Z,16.73
2022-10-05T00:47:11.111Z,16.90
2022-10-05T00:50:04.257Z,17.27
2022-10-05T00:52:51.375Z,17.33
2022-10-05T00:55:51.663Z,18.55
2022-10-05T00:58:28.912Z,22.23
2022-10-05T01:01:17.626Z,20.83
2022-10-05T01:03:54.517Z,17.50
2022-10-05T01:07:00.934Z,53.05
2022-10-05T01:09:53.713Z,16.45
2022-10-05T01:12:30.751Z,17.85
2022-10-05T01:15:07.718Z,16.23
2022-10-05T01:17:49.732Z,16.23
2022-10-05T01:20:17.386Z,28.73
2022-10-05T01:23:15.764Z,22.35
2022-10-05T01:26:04.765Z,17.75
2022-10-05T01:28:38.327Z,17.40
2022-10-05T01:31:35.408Z,15.88
2022-10-05T01:34:13.386Z,15.95
2022-10-05T01:36:52.286Z,16.40
2022-10-05T01:39:57.137Z,16.67
2022-10-05T01:42:30.901Z,48.28
2022-10-05T01:45:19.977Z,18.83
2022-10-05T01:47:53.123Z,17.65
2022-10-05T01:51:03.874Z,17.42
2022-10-05T01:53:46.763Z,18.87
2022-10-05T01:56:26.515Z,18.58
2022-10-05T01:58:56.979Z,18.55
2022-10-05T02:01:37.102Z,18.13
2022-10-05T02:04:35.601Z,18.27
2022-10-05T02:07:10.775Z,18.05
2022-10-05T02:09:55.545Z,18.45
2022-10-05T02:12:28.500Z,17.95
2022-10-05T02:15:03.265Z,18.98
2022-10-05T02:17:59.303Z,19.27
2022-10-05T02:20:32.586Z,19.02
2022-10-05T02:23:05.268Z,19.15
2022-10-05T02:25:39.543Z,17.40
2022-10-05T02:28:15.565Z,17.80
2022-10-05T02:30:50.590Z,18.25
2022-10-05T02:33:33.266Z,17.20
2022-10-05T02:36:17.328Z,18.95
2022-10-05T02:39:02.670Z,19.30
2022-10-05T02:41:42.047Z,19.02
2022-10-05T02:44:55.338Z,18.98
2022-10-05T02:47:42.159Z,18.67
2022-10-05T02:50:39.521Z,18.52
2022-10-05T02:53:36.009Z,18.75
2022-10-05T02:56:15.311Z,17.83
2022-10-05T02:59:28.251Z,17.10
2022-10-05T03:02:05.141Z,17.63
2022-10-05T03:04:45.347Z,18.55
2022-10-05T03:07:31.846Z,17.23
2022-10-05T03:10:12.451Z,20.30
2022-10-05T03:13:10.871Z,19.40
2022-10-05T03:16:06.285Z,19.42
2022-10-05T03:18:59.787Z,18.58
2022-10-05T03:21:52.069Z,19.52
2022-10-05T03:24:38.393Z,19.08
2022-10-05T03:27:14.779Z,19.13
2022-10-05T03:29:42.592Z,19.80
2022-10-05T03:32:27.663Z,21.58
2022-10-05T03:35:33.032Z,19.38
2022-10-05T03:38:21.037Z,20.23
2022-10-05T03:40:56.063Z,18.17
2022-10-05T03:43:57.556Z,19.80
2022-10-05T03:46:31.690Z,19.60
2022-10-05T03:49:14.869Z,20.25
2022-10-05T03:51:47.235Z,19.85
2022-10-05T03:54:25.030Z,19.52
2022-10-05T03:56:56.271Z,19.98
2022-10-05T03:59:42.325Z,22.20
2022-10-05T04:02:24.495Z,19.83
2022-10-05T04:07:35.813Z,19.60
2022-10-05T04:10:10.720Z,21.05
2022-10-05T04:12:46.327Z,20.63
2022-10-05T04:15:54.702Z,21.65
2022-10-05T04:18:29.076Z,20.98
2022-10-05T04:21:08.476Z,19.42
2022-10-05T04:23:43.136Z,19.83
2022-10-05T04:26:25.185Z,20.85
2022-10-05T04:29:15.844Z,19.50
2022-10-05T04:31:47.458Z,19.85
2022-10-05T04:37:08.148Z,22.48
2022-10-05T04:39:36.009Z,18.40
2022-10-05T04:42:12.328Z,22.13
2022-10-05T04:44:59.070Z,20.77
2022-10-05T04:47:56.139Z,21.02
2022-10-05T04:50:46.287Z,21.05
2022-10-05T04:53:22.454Z,21.08
2022-10-05T04:56:09.152Z,20.15
2022-10-05T04:59:04.049Z,21.77
2022-10-05T05:01:48.270Z,21.45
2022-10-05T05:04:52.050Z,20.60
2022-10-05T05:07:42.315Z,22.60
2022-10-05T05:10:43.919Z,22.02
2022-10-05T05:13:30.238Z,20.93
2022-10-05T05:16:19.266Z,20.40
2022-10-05T05:18:54.492Z,19.63
2022-10-05T05:22:00.368Z,19.88
2022-10-05T05:24:46.058Z,20.83
2022-10-05T05:27:32.423Z,20.05
2022-10-05T05:30:17.076Z,18.95
2022-10-05T05:32:53.164Z,20.08
2022-10-05T05:35:45.639Z,19.92
2022-10-05T05:38:27.665Z,19.15
2022-10-05T05:41:12.790Z,19.55
2022-10-05T05:44:13.325Z,20.75
2022-10-05T05:47:03.415Z,20.73
2022-10-05T05:50:01.785Z,19.13
2022-10-05T05:52:47.273Z,19.65
2022-10-05T05:55:30.212Z,20.63
2022-10-05T05:58:17.714Z,19.55
2022-10-05T06:00:59.064Z,20.45
2022-10-05T06:03:40.140Z,17.88
2022-10-05T06:06:14.234Z,20.00
2022-10-05T06:08:47.857Z,20.35
2022-10-05T06:11:32.078Z,19.70
2022-10-05T06:14:05.439Z,19.75
2022-10-05T06:17:15.806Z,19.88
2022-10-05T06:19:46.256Z,18.50
2022-10-05T06:22:29.244Z,19.23
2022-10-05T06:25:12.008Z,19.15
2022-10-05T06:28:09.501Z,20.23
2022-10-05T06:30:57.253Z,19.52
2022-10-05T06:33:33.972Z,19.55
2022-10-05T06:36:18.266Z,18.95
2022-10-05T06:39:07.171Z,20.55
2022-10-05T06:42:03.765Z,20.25
2022-10-05T06:45:08.194Z,19.33
2022-10-05T06:48:12.034Z,18.67
2022-10-05T06:51:17.078Z,20.10
2022-10-05T06:54:19.738Z,18.63
2022-10-05T06:57:16.918Z,18.90
2022-10-05T06:59:57.275Z,16.77
2022-10-05T07:02:54.501Z,18.02
2022-10-05T07:05:52.087Z,18.45
2022-10-05T07:08:37.306Z,20.63
2022-10-05T07:11:17.777Z,19.38
2022-10-05T07:13:57.658Z,20.07
2022-10-05T07:16:53.036Z,19.42
2022-10-05T07:20:04.019Z,20.25
2022-10-05T07:22:50.122Z,19.10
2022-10-05T07:25:27.882Z,18.98
2022-10-05T07:28:34.765Z,19.20
2022-10-05T07:31:05.674Z,18.23
2022-10-05T07:33:38.312Z,21.63
2022-10-05T07:37:10.224Z,19.70
2022-10-05T07:42:46.061Z,18.05
2022-10-05T07:45:33.751Z,17.70
2022-10-05T07:48:23.480Z,18.80
2022-10-05T07:51:14.727Z,17.05
2022-10-05T07:54:06.678Z,16.50
2022-10-05T07:56:41.705Z,15.70
2022-10-05T07:59:36.481Z,16.55
2022-10-05T08:02:34.197Z,15.63
2022-10-05T08:05:17.386Z,16.27
2022-10-05T08:07:48.072Z,15.60
2022-10-05T08:10:30.287Z,16.25
2022-10-05T08:13:25.706Z,14.88
2022-10-05T08:15:57.889Z,15.70
2022-10-05T08:18:46.297Z,16.17
2022-10-05T08:21:16.366Z,15.55
2022-10-05T08:24:25.968Z,15.52
2022-10-05T08:42:21.479Z,14.40
2022-10-05T09:04:11.291Z,13.57
2022-10-05T09:07:08.183Z,13.27
2022-10-05T09:10:01.397Z,12.07
2022-10-05T09:12:54.711Z,13.43
2022-10-05T09:15:56.449Z,12.57
2022-10-05T09:18:29.883Z,11.85
2022-10-05T09:21:25.109Z,11.73
2022-10-05T09:24:13.221Z,12.57
2022-10-05T09:26:42.747Z,12.25
2022-10-05T09:29:53.418Z,12.57
2022-10-05T09:32:40.097Z,12.73
2022-10-05T09:35:26.450Z,12.45
2022-10-05T09:38:08.713Z,11.77
2022-10-05T09:40:54.266Z,11.82
2022-10-05T09:43:45.881Z,10.90
2022-10-05T09:46:51.926Z,11.65
2022-10-05T09:49:25.512Z,11.80
2022-10-05T09:52:32.061Z,12.10
2022-10-05T09:55:20.552Z,11.13
2022-10-05T09:57:54.439Z,11.43
2022-10-05T10:00:38.752Z,11.52
2022-10-05T10:03:43.220Z,11.23
2022-10-05T10:40:20.530Z,10.13
2022-10-05T10:42:54.133Z,10.20
2022-10-05T10:45:45.635Z,10.63
2022-10-05T10:48:19.126Z,10.35
2022-10-05T10:51:03.773Z,11.30
2022-10-05T10:53:47.661Z,10.82
2022-10-05T10:56:29.162Z,9.70
2022-10-05T10:59:17.935Z,10.45
2022-10-05T11:02:15.851Z,9.30
2022-10-05T11:04:46.579Z,9.27
2022-10-05T11:07:39.244Z,9.38
2022-10-05T11:10:26.182Z,11.45
2022-10-05T11:13:08.981Z,10.32
2022-10-05T11:15:58.409Z,10.55
2022-10-05T11:19:02.463Z,11.35
2022-10-05T11:21:38.374Z,11.00
2022-10-05T11:24:38.910Z,10.63
2022-10-05T11:27:51.697Z,10.38
2022-10-05T11:30:31.603Z,10.20
2022-10-05T11:33:12.044Z,11.52
2022-10-05T11:36:09.697Z,9.77
2022-10-05T11:38:55.830Z,11.20
2022-10-05T11:41:56.014Z,10.68
2022-10-05T11:44:46.143Z,10.90
2022-10-05T11:47:39.424Z,9.60
2022-10-05T11:50:47.552Z,10.65
2022-10-05T11:53:25.547Z,9.52
2022-10-05T11:56:09.481Z,11.38
2022-10-05T11:58:57.503Z,9.63
2022-10-05T12:02:04.439Z,9.18
2022-10-05T12:04:56.896Z,9.60
2022-10-05T12:07:42.672Z,9.43
2022-10-05T12:10:43.206Z,9.80
2022-10-05T12:13:21.836Z,9.52
2022-10-05T12:15:57.690Z,9.85
2022-10-05T12:18:31.685Z,9.10
2022-10-05T12:21:22.973Z,10.18
2022-10-05T12:23:58.778Z,9.57
2022-10-05T12:26:28.398Z,11.23
2022-10-05T12:29:08.991Z,10.13
2022-10-05T12:31:50.636Z,11.05
2022-10-05T12:34:27.629Z,11.52
2022-10-05T12:37:17.519Z,10.55
2022-10-05T12:39:50.803Z,11.10
2022-10-05T12:42:30.853Z,11.45
2022-10-05T12:45:14.630Z,12.37
2022-10-05T12:47:54.062Z,11.70
2022-10-05T12:50:37.290Z,11.30
2022-10-05T12:53:23.445Z,10.95
2022-10-05T12:55:57.240Z,11.35
2022-10-05T12:58:48.741Z,12.57
2022-10-05T13:01:35.254Z,15.20
2022-10-05T13:04:34.203Z,13.23
2022-10-05T13:07:28.758Z,13.75
2022-10-05T13:10:12.146Z,13.95
2022-10-05T13:12:39.913Z,15.40
2022-10-05T13:15:07.989Z,12.55
2022-10-05T13:17:51.136Z,12.07
2022-10-05T13:21:01.581Z,12.43
2022-10-05T13:23:43.708Z,12.20
2022-10-05T13:26:17.927Z,12.55
2022-10-05T13:28:53.444Z,12.80
2022-10-05T13:31:40.858Z,12.60
2022-10-05T13:34:30.355Z,12.63
2022-10-05T13:37:34.102Z,12.68
2022-10-05T13:40:12.828Z,12.52
2022-10-05T13:42:40.681Z,11.95
2022-10-05T13:45:21.620Z,12.52
2022-10-05T13:47:55.321Z,13.10
2022-10-05T13:50:43.240Z,13.05
2022-10-05T13:53:15.602Z,12.73
2022-10-05T13:56:00.804Z,12.82
2022-10-05T13:58:48.599Z,12.55
2022-10-05T14:01:36.232Z,13.07
2022-10-05T14:04:27.460Z,12.63
2022-10-05T14:09:34.151Z,13.05
2022-10-05T14:12:04.868Z,12.57
2022-10-05T14:14:42.515Z,13.35
2022-10-05T14:17:15.868Z,16.33
2022-10-05T14:19:46.686Z,13.95
2022-10-05T14:22:25.328Z,12.82
2022-10-05T14:24:55.567Z,12.30
2022-10-05T14:27:27.117Z,13.57
2022-10-05T14:30:01.648Z,13.85
2022-10-05T14:32:32.845Z,14.77
2022-10-05T14:37:44.593Z,14.23
2022-10-05T14:40:26.172Z,15.07
2022-10-05T14:42:54.529Z,13.65
2022-10-05T14:45:30.150Z,14.05
2022-10-05T14:48:01.919Z,13.98
2022-10-05T14:50:31.586Z,13.38
2022-10-05T14:53:11.120Z,13.80
2022-10-05T14:55:45.030Z,13.60
2022-10-05T14:58:28.719Z,14.20
2022-10-05T15:01:07.226Z,15.45
2022-10-05T15:04:02.361Z,13.35
2022-10-05T15:06:33.150Z,12.57
2022-10-05T15:09:33.763Z,13.13
2022-10-05T15:12:03.376Z,14.98
2022-10-05T15:14:40.422Z,14.15
2022-10-05T15:17:20.800Z,13.85
2022-10-05T15:20:05.334Z,14.10
2022-10-05T15:22:42.829Z,13.85
2022-10-05T15:25:33.000Z,13.90
2022-10-05T15:28:24.277Z,15.70
2022-10-05T15:31:05.809Z,16.67
2022-10-05T15:34:08.825Z,15.85
2022-10-05T15:37:03.382Z,13.75
2022-10-05T15:39:46.615Z,14.80
2022-10-05T15:42:18.190Z,15.52
2022-10-05T15:45:07.124Z,15.35
2022-10-05T15:48:10.339Z,15.93
2022-10-05T15:50:44.080Z,15.02
2022-10-05T15:53:22.594Z,14.88
2022-10-05T15:56:22.434Z,14.73
2022-10-05T15:58:55.907Z,16.17
2022-10-05T16:01:32.250Z,16.83
2022-10-05T16:04:17.824Z,14.77
2022-10-05T16:07:16.160Z,24.25
2022-10-05T16:09:53.621Z,15.07
2022-10-05T16:12:35.469Z,16.92
2022-10-05T16:15:26.665Z,17.23
2022-10-05T16:18:00.003Z,15.02
2022-10-05T16:20:42.878Z,15.27
2022-10-05T16:23:28.527Z,15.63
2022-10-05T16:25:57.723Z,15.02
2022-10-05T16:28:58.859Z,16.02
2022-10-05T16:31:32.362Z,16.42
2022-10-05T16:34:23.487Z,17.92
2022-10-05T16:37:37.939Z,18.48
2022-10-05T16:40:19.416Z,16.27
2022-10-05T16:42:57.592Z,17.60
2022-10-05T16:45:44.706Z,16.83
2022-10-05T16:48:23.686Z,16.60
2022-10-05T16:50:55.294Z,17.95
2022-10-05T16:53:34.851Z,16.02
2022-10-05T16:56:17.542Z,17.55
2022-10-05T16:58:57.671Z,19.85
2022-10-05T17:01:50.151Z,18.23
2022-10-05T17:04:36.196Z,17.20
2022-10-05T17:07:10.856Z,16.77
2022-10-05T17:09:43.139Z,16.17
2022-10-05T17:12:52.999Z,16.17
2022-10-05T17:15:32.306Z,15.55
2022-10-05T17:18:38.424Z,17.60
2022-10-05T17:21:15.880Z,17.85
2022-10-05T17:23:56.344Z,21.27
2022-10-05T17:26:45.710Z,15.43
2022-10-05T17:29:16.041Z,16.15
2022-10-05T17:32:08.552Z,16.80
2022-10-05T17:35:02.935Z,16.73
2022-10-05T17:37:35.876Z,15.80
2022-10-05T17:40:41.491Z,16.20
2022-10-05T17:43:15.473Z,17.13
2022-10-05T17:45:43.295Z,16.50
2022-10-05T17:48:42.583Z,17.40
2022-10-05T17:51:47.367Z,16.77
2022-10-05T17:54:44.591Z,16.83
2022-10-05T17:57:18.339Z,18.25
2022-10-05T17:59:57.980Z,17.38
2022-10-05T18:02:38.684Z,19.48
2022-10-05T18:05:12.332Z,17.10
2022-10-05T18:07:42.427Z,17.90
2022-10-05T18:10:11.710Z,18.38
2022-10-05T18:12:42.018Z,19.38
2022-10-05T18:15:10.564Z,20.33
2022-10-05T18:18:36.188Z,20.33
2022-10-05T18:21:15.477Z,20.20
2022-10-05T18:24:00.402Z,17.67
2022-10-05T18:27:05.992Z,17.52
2022-10-05T18:30:03.371Z,18.80
2022-10-05T18:32:59.395Z,17.95
2022-10-05T18:35:45.983Z,18.05
2022-10-05T18:38:33.241Z,21.15
2022-10-05T18:41:09.375Z,17.90
2022-10-05T18:43:47.778Z,18.15
2022-10-05T18:46:39.755Z,19.23
2022-10-05T18:49:43.574Z,20.20
2022-10-05T18:52:53.709Z,17.63
2022-10-05T18:55:43.983Z,17.63
2022-10-05T18:58:37.794Z,18.38
2022-10-05T19:01:36.685Z,19.88
2022-10-05T19:04:14.133Z,17.63
2022-10-05T19:06:59.868Z,17.98
2022-10-05T19:09:36.125Z,18.08
2022-10-05T19:12:12.513Z,17.35
2022-10-05T19:15:00.031Z,18.35
2022-10-05T19:17:46.438Z,18.45
2022-10-05T19:20:34.122Z,17.52
2022-10-05T19:23:22.832Z,16.95
2022-10-05T19:26:19.988Z,17.45
2022-10-05T19:29:13.871Z,16.83
2022-10-05T19:31:50.348Z,17.40
2022-10-05T19:34:57.373Z,17.60
2022-10-05T19:38:15.206Z,19.65
2022-10-05T19:40:53.685Z,17.60
2022-10-05T19:43:53.708Z,19.42
2022-10-05T19:46:33.298Z,19.35
2022-10-05T19:49:01.158Z,18.70
2022-10-05T19:51:31.627Z,17.02
2022-10-05T19:54:13.878Z,18.67
2022-10-05T19:56:50.607Z,18.45
2022-10-05T19:59:25.377Z,18.88
2022-10-05T20:01:59.242Z,20.00
2022-10-05T20:04:36.099Z,26.13
2022-10-05T20:07:05.161Z,20.17
2022-10-05T20:09:59.752Z,20.10
2022-10-05T20:12:53.391Z,19.65
2022-10-05T20:15:49.008Z,19.00
2022-10-05T20:18:58.420Z,18.05
2022-10-05T20:21:40.085Z,18.60
2022-10-05T20:24:14.193Z,19.23
2022-10-05T20:27:09.542Z,18.55
2022-10-05T20:29:40.167Z,20.15
2022-10-05T20:32:13.053Z,17.48
2022-10-05T20:34:45.940Z,18.90
2022-10-05T20:37:16.593Z,19.33
2022-10-05T20:39:45.746Z,17.65
2022-10-05T20:42:14.258Z,18.08
2022-10-05T20:44:42.680Z,18.75
2022-10-05T20:47:37.889Z,18.58
2022-10-05T20:50:09.193Z,20.25
2022-10-05T20:52:38.011Z,18.95
2022-10-05T20:55:09.138Z,18.42
2022-10-05T20:58:24.805Z,20.67
2022-10-05T21:01:11.350Z,19.20
2022-10-05T21:03:39.179Z,19.45
2022-10-05T21:06:09.219Z,19.88
2022-10-05T21:08:37.224Z,20.17
2022-10-05T21:11:11.619Z,19.75
2022-10-05T21:13:44.919Z,19.67
2022-10-05T21:16:17.616Z,19.75
2022-10-05T21:18:48.010Z,21.42
2022-10-05T21:21:18.341Z,20.33
2022-10-05T21:23:51.373Z,26.10
2022-10-05T21:26:19.393Z,24.25
2022-10-05T21:28:48.819Z,21.25
2022-10-05T21:31:16.702Z,20.63
2022-10-05T21:33:45.806Z,20.67
2022-10-05T21:36:38.569Z,20.75
2022-10-05T21:39:06.722Z,19.08
2022-10-05T21:42:00.591Z,22.73
2022-10-05T21:44:28.270Z,22.02
2022-10-05T21:46:56.764Z,20.65
2022-10-05T21:49:26.771Z,21.95
2022-10-05T21:51:54.739Z,20.27
2022-10-05T21:54:23.469Z,20.33
2022-10-05T21:56:55.611Z,21.13
2022-10-05T21:59:29.731Z,21.63
2022-10-05T22:01:57.580Z,20.15
2022-10-05T22:04:25.868Z,28.88
2022-10-05T22:06:55.667Z,21.27
2022-10-05T22:09:24.740Z,21.20
2022-10-05T22:11:52.585Z,21.80
2022-10-05T22:14:20.272Z,22.60
2022-10-05T22:16:48.082Z,24.10
2022-10-05T22:19:19.294Z,21.00
2022-10-05T22:24:14.467Z,25.40
2022-10-05T22:26:46.438Z,23.35
2022-10-05T22:29:16.174Z,22.90
2022-10-05T22:31:46.410Z,21.35
2022-10-05T22:34:14.999Z,21.77
2022-10-05T22:36:42.989Z,20.85
2022-10-05T22:39:10.702Z,22.00
2022-10-05T22:41:38.415Z,20.13
2022-10-05T22:44:06.923Z,23.67
2022-10-05T22:46:35.611Z,20.67
2022-10-05T22:49:03.309Z,21.52
2022-10-05T22:51:31.710Z,21.55
2022-10-05T22:53:59.452Z,22.30
2022-10-05T22:56:27.254Z,20.00
2022-10-05T22:58:55.233Z,20.45
2022-10-05T23:01:22.978Z,21.17
2022-10-05T23:03:51.061Z,29.77
2022-10-05T23:06:20.635Z,20.30
2022-10-05T23:08:48.481Z,21.58
2022-10-05T23:11:18.944Z,21.70
2022-10-05T23:13:46.658Z,20.85
2022-10-05T23:16:16.940Z,23.05
2022-10-05T23:18:45.363Z,21.77
2022-10-05T23:21:13.061Z,20.80
2022-10-05T23:23:43.490Z,20.85
2022-10-05T23:26:11.822Z,23.10
2022-10-05T23:28:43.154Z,21.88
2022-10-05T23:31:11.095Z,20.92
2022-10-05T23:33:38.883Z,18.08
2022-10-05T23:36:13.976Z,20.30
2022-10-05T23:38:41.873Z,20.35
2022-10-05T23:41:09.984Z,21.50
2022-10-05T23:43:38.145Z,21.02
2022-10-05T23:46:07.240Z,20.98
2022-10-05T23:49:00.433Z,21.33
2022-10-05T23:51:28.538Z,22.40
2022-10-05T23:53:56.289Z,22.00
2022-10-05T23:56:24.213Z,20.63
2022-10-05T23:59:17.497Z,23.58
